sensor_id;sensor_type;location;lat;lon;timestamp;P1;durP1;ratioP1;P2;durP2;ratioP2
22632;SDS011;11483;55.828;37.488;2023-12-20T00:01:50;1.35;;;1.23;;
22632;SDS011;11483;55.828;37.488;2023-12-20T00:04:16;2.63;;;1.30;;
22632;SDS011;11483;55.828;37.488;2023-12-20T00:06:42;3.60;;;1.40;;
22632;SDS011;11483;55.828;37.488;2023-12-20T00:09:08;2.17;;;1.38;;
22632;SDS011;11483;55.828;37.488;2023-12-20T00:11:34;2.15;;;1.40;;
22632;SDS011;11483;55.828;37.488;2023-12-20T00:14:00;3.05;;;1.95;;
22632;SDS011;11483;55.828;37.488;2023-12-20T00:16:26;1.83;;;1.42;;
22632;SDS011;11483;55.828;37.488;2023-12-20T00:18:52;1.77;;;1.40;;
22632;SDS011;11483;55.828;37.488;2023-12-20T00:21:17;2.40;;;1.55;;
22632;SDS011;11483;55.828;37.488;2023-12-20T00:23:43;3.25;;;1.40;;
22632;SDS011;11483;55.828;37.488;2023-12-20T00:26:09;5.45;;;1.40;;
22632;SDS011;11483;55.828;37.488;2023-12-20T00:28:35;3.78;;;1.20;;
22632;SDS011;11483;55.828;37.488;2023-12-20T00:31:01;2.33;;;1.60;;
22632;SDS011;11483;55.828;37.488;2023-12-20T00:33:27;2.57;;;1.47;;
22632;SDS011;11483;55.828;37.488;2023-12-20T00:35:52;1.15;;;1.05;;
22632;SDS011;11483;55.828;37.488;2023-12-20T00:38:18;2.33;;;1.30;;
22632;SDS011;11483;55.828;37.488;2023-12-20T00:40:44;1.80;;;1.17;;
22632;SDS011;11483;55.828;37.488;2023-12-20T00:43:10;2.85;;;1.23;;
22632;SDS011;11483;55.828;37.488;2023-12-20T00:45:38;1.67;;;1.23;;
22632;SDS011;11483;55.828;37.488;2023-12-20T00:48:04;1.20;;;1.00;;
22632;SDS011;11483;55.828;37.488;2023-12-20T00:50:30;1.98;;;1.20;;
22632;SDS011;11483;55.828;37.488;2023-12-20T00:52:56;2.95;;;1.30;;
22632;SDS011;11483;55.828;37.488;2023-12-20T00:55:22;1.92;;;1.60;;
22632;SDS011;11483;55.828;37.488;2023-12-20T00:57:48;2.67;;;1.90;;
22632;SDS011;11483;55.828;37.488;2023-12-20T01:00:14;2.00;;;1.47;;
22632;SDS011;11483;55.828;37.488;2023-12-20T01:02:40;2.35;;;1.67;;
22632;SDS011;11483;55.828;37.488;2023-12-20T01:05:06;3.33;;;1.60;;
22632;SDS011;11483;55.828;37.488;2023-12-20T01:07:35;4.77;;;1.80;;
22632;SDS011;11483;55.828;37.488;2023-12-20T01:10:01;3.43;;;1.50;;
22632;SDS011;11483;55.828;37.488;2023-12-20T01:12:27;2.27;;;1.70;;
22632;SDS011;11483;55.828;37.488;2023-12-20T01:14:55;2.43;;;1.73;;
22632;SDS011;11483;55.828;37.488;2023-12-20T01:17:21;5.63;;;1.80;;
22632;SDS011;11483;55.828;37.488;2023-12-20T01:19:47;2.22;;;1.55;;
22632;SDS011;11483;55.828;37.488;2023-12-20T01:22:13;5.93;;;2.15;;
22632;SDS011;11483;55.828;37.488;2023-12-20T01:24:39;4.15;;;1.73;;
22632;SDS011;11483;55.828;37.488;2023-12-20T01:27:05;4.47;;;1.80;;
22632;SDS011;11483;55.828;37.488;2023-12-20T01:29:30;3.25;;;1.90;;
22632;SDS011;11483;55.828;37.488;2023-12-20T01:31:56;6.20;;;2.25;;
22632;SDS011;11483;55.828;37.488;2023-12-20T01:34:22;4.75;;;2.03;;
22632;SDS011;11483;55.828;37.488;2023-12-20T01:36:48;3.27;;;2.27;;
22632;SDS011;11483;55.828;37.488;2023-12-20T01:39:14;4.28;;;2.60;;
22632;SDS011;11483;55.828;37.488;2023-12-20T01:41:39;5.20;;;2.83;;
22632;SDS011;11483;55.828;37.488;2023-12-20T01:44:05;5.00;;;2.57;;
22632;SDS011;11483;55.828;37.488;2023-12-20T01:46:32;5.40;;;2.17;;
22632;SDS011;11483;55.828;37.488;2023-12-20T01:48:58;8.37;;;2.20;;
22632;SDS011;11483;55.828;37.488;2023-12-20T01:51:24;4.63;;;2.30;;
22632;SDS011;11483;55.828;37.488;2023-12-20T01:53:52;5.60;;;2.10;;
22632;SDS011;11483;55.828;37.488;2023-12-20T01:56:22;4.60;;;2.30;;
22632;SDS011;11483;55.828;37.488;2023-12-20T01:58:48;2.70;;;1.70;;
22632;SDS011;11483;55.828;37.488;2023-12-20T02:01:14;4.47;;;1.83;;
22632;SDS011;11483;55.828;37.488;2023-12-20T02:03:41;3.83;;;2.00;;
22632;SDS011;11483;55.828;37.488;2023-12-20T02:06:07;2.63;;;1.53;;
22632;SDS011;11483;55.828;37.488;2023-12-20T02:08:34;5.37;;;1.83;;
22632;SDS011;11483;55.828;37.488;2023-12-20T02:11:00;2.83;;;1.75;;
22632;SDS011;11483;55.828;37.488;2023-12-20T02:13:27;3.40;;;1.60;;
22632;SDS011;11483;55.828;37.488;2023-12-20T02:15:53;2.13;;;1.57;;
22632;SDS011;11483;55.828;37.488;2023-12-20T02:18:20;3.00;;;1.33;;
22632;SDS011;11483;55.828;37.488;2023-12-20T02:20:46;3.80;;;1.20;;
22632;SDS011;11483;55.828;37.488;2023-12-20T02:23:11;2.20;;;1.10;;
22632;SDS011;11483;55.828;37.488;2023-12-20T02:25:37;7.03;;;1.23;;
22632;SDS011;11483;55.828;37.488;2023-12-20T02:28:03;1.43;;;1.23;;
22632;SDS011;11483;55.828;37.488;2023-12-20T02:30:30;2.03;;;1.10;;
22632;SDS011;11483;55.828;37.488;2023-12-20T02:32:56;2.93;;;1.03;;
22632;SDS011;11483;55.828;37.488;2023-12-20T02:35:24;3.03;;;1.10;;
22632;SDS011;11483;55.828;37.488;2023-12-20T02:37:50;2.30;;;1.07;;
22632;SDS011;11483;55.828;37.488;2023-12-20T02:40:16;2.07;;;1.00;;
22632;SDS011;11483;55.828;37.488;2023-12-20T02:42:42;1.40;;;1.00;;
22632;SDS011;11483;55.828;37.488;2023-12-20T02:45:08;2.07;;;0.90;;
22632;SDS011;11483;55.828;37.488;2023-12-20T02:47:34;4.65;;;1.15;;
22632;SDS011;11483;55.828;37.488;2023-12-20T02:50:00;1.27;;;1.03;;
22632;SDS011;11483;55.828;37.488;2023-12-20T02:52:27;1.17;;;0.70;;
22632;SDS011;11483;55.828;37.488;2023-12-20T02:54:54;1.63;;;1.10;;
22632;SDS011;11483;55.828;37.488;2023-12-20T02:57:20;1.05;;;0.75;;
22632;SDS011;11483;55.828;37.488;2023-12-20T02:59:46;1.63;;;1.20;;
22632;SDS011;11483;55.828;37.488;2023-12-20T03:02:11;1.25;;;1.00;;
22632;SDS011;11483;55.828;37.488;2023-12-20T03:04:37;3.45;;;1.27;;
22632;SDS011;11483;55.828;37.488;2023-12-20T03:07:03;1.73;;;1.10;;
22632;SDS011;11483;55.828;37.488;2023-12-20T03:09:29;2.10;;;1.13;;
22632;SDS011;11483;55.828;37.488;2023-12-20T03:11:55;7.87;;;1.30;;
22632;SDS011;11483;55.828;37.488;2023-12-20T03:14:21;8.30;;;1.40;;
22632;SDS011;11483;55.828;37.488;2023-12-20T03:16:48;2.95;;;1.30;;
22632;SDS011;11483;55.828;37.488;2023-12-20T03:19:15;2.00;;;1.70;;
22632;SDS011;11483;55.828;37.488;2023-12-20T03:21:41;4.77;;;1.50;;
22632;SDS011;11483;55.828;37.488;2023-12-20T03:24:07;6.83;;;1.47;;
22632;SDS011;11483;55.828;37.488;2023-12-20T03:26:33;2.83;;;1.90;;
22632;SDS011;11483;55.828;37.488;2023-12-20T03:28:58;2.77;;;1.27;;
22632;SDS011;11483;55.828;37.488;2023-12-20T03:31:24;2.73;;;1.33;;
22632;SDS011;11483;55.828;37.488;2023-12-20T03:33:50;1.57;;;1.10;;
22632;SDS011;11483;55.828;37.488;2023-12-20T03:36:18;1.13;;;1.03;;
22632;SDS011;11483;55.828;37.488;2023-12-20T03:38:44;1.47;;;1.27;;
22632;SDS011;11483;55.828;37.488;2023-12-20T03:41:11;2.30;;;1.40;;
22632;SDS011;11483;55.828;37.488;2023-12-20T03:43:37;1.47;;;1.10;;
22632;SDS011;11483;55.828;37.488;2023-12-20T03:46:03;3.47;;;1.43;;
22632;SDS011;11483;55.828;37.488;2023-12-20T03:48:29;3.03;;;1.53;;
22632;SDS011;11483;55.828;37.488;2023-12-20T03:50:56;3.40;;;1.53;;
22632;SDS011;11483;55.828;37.488;2023-12-20T03:53:22;4.27;;;1.80;;
22632;SDS011;11483;55.828;37.488;2023-12-20T03:55:48;4.27;;;1.97;;
22632;SDS011;11483;55.828;37.488;2023-12-20T03:58:14;5.13;;;2.33;;
22632;SDS011;11483;55.828;37.488;2023-12-20T04:00:40;2.90;;;2.00;;
22632;SDS011;11483;55.828;37.488;2023-12-20T04:03:06;4.57;;;2.00;;
22632;SDS011;11483;55.828;37.488;2023-12-20T04:05:32;7.50;;;2.50;;
22632;SDS011;11483;55.828;37.488;2023-12-20T04:07:59;3.60;;;2.10;;
22632;SDS011;11483;55.828;37.488;2023-12-20T04:10:26;5.03;;;2.53;;
22632;SDS011;11483;55.828;37.488;2023-12-20T04:12:53;5.17;;;2.57;;
22632;SDS011;11483;55.828;37.488;2023-12-20T04:15:20;4.37;;;2.43;;
22632;SDS011;11483;55.828;37.488;2023-12-20T04:17:45;6.03;;;2.50;;
22632;SDS011;11483;55.828;37.488;2023-12-20T04:20:11;6.37;;;2.30;;
22632;SDS011;11483;55.828;37.488;2023-12-20T04:22:37;5.30;;;2.37;;
22632;SDS011;11483;55.828;37.488;2023-12-20T04:25:03;3.77;;;2.30;;
22632;SDS011;11483;55.828;37.488;2023-12-20T04:27:29;5.32;;;1.98;;
22632;SDS011;11483;55.828;37.488;2023-12-20T04:29:55;5.00;;;1.98;;
22632;SDS011;11483;55.828;37.488;2023-12-20T04:32:21;6.22;;;2.50;;
22632;SDS011;11483;55.828;37.488;2023-12-20T04:34:47;4.13;;;2.40;;
22632;SDS011;11483;55.828;37.488;2023-12-20T04:37:13;7.97;;;2.00;;
22632;SDS011;11483;55.828;37.488;2023-12-20T04:39:38;4.20;;;2.13;;
22632;SDS011;11483;55.828;37.488;2023-12-20T04:42:06;5.17;;;2.10;;
22632;SDS011;11483;55.828;37.488;2023-12-20T04:44:32;3.67;;;2.00;;
22632;SDS011;11483;55.828;37.488;2023-12-20T04:46:58;4.67;;;1.83;;
22632;SDS011;11483;55.828;37.488;2023-12-20T04:49:24;4.13;;;1.92;;
22632;SDS011;11483;55.828;37.488;2023-12-20T04:51:50;3.50;;;1.83;;
22632;SDS011;11483;55.828;37.488;2023-12-20T04:54:16;7.30;;;2.10;;
22632;SDS011;11483;55.828;37.488;2023-12-20T04:56:42;6.00;;;1.90;;
22632;SDS011;11483;55.828;37.488;2023-12-20T04:59:08;5.43;;;1.93;;
22632;SDS011;11483;55.828;37.488;2023-12-20T05:01:34;4.43;;;2.08;;
22632;SDS011;11483;55.828;37.488;2023-12-20T05:04:00;7.43;;;2.38;;
22632;SDS011;11483;55.828;37.488;2023-12-20T05:06:25;3.95;;;2.10;;
22632;SDS011;11483;55.828;37.488;2023-12-20T05:08:51;3.50;;;2.17;;
22632;SDS011;11483;55.828;37.488;2023-12-20T05:11:17;3.87;;;2.43;;
22632;SDS011;11483;55.828;37.488;2023-12-20T05:13:43;3.35;;;1.90;;
22632;SDS011;11483;55.828;37.488;2023-12-20T05:16:09;9.55;;;2.03;;
22632;SDS011;11483;55.828;37.488;2023-12-20T05:18:35;4.87;;;2.10;;
22632;SDS011;11483;55.828;37.488;2023-12-20T05:21:01;6.83;;;2.00;;
22632;SDS011;11483;55.828;37.488;2023-12-20T05:23:27;4.95;;;1.98;;
22632;SDS011;11483;55.828;37.488;2023-12-20T05:25:52;5.93;;;2.30;;
22632;SDS011;11483;55.828;37.488;2023-12-20T05:28:18;10.70;;;2.60;;
22632;SDS011;11483;55.828;37.488;2023-12-20T05:30:44;4.38;;;2.33;;
22632;SDS011;11483;55.828;37.488;2023-12-20T05:33:10;6.05;;;2.35;;
22632;SDS011;11483;55.828;37.488;2023-12-20T05:35:36;6.32;;;2.50;;
22632;SDS011;11483;55.828;37.488;2023-12-20T05:38:02;4.57;;;2.53;;
22632;SDS011;11483;55.828;37.488;2023-12-20T05:40:27;5.45;;;2.63;;
22632;SDS011;11483;55.828;37.488;2023-12-20T05:42:53;8.00;;;3.27;;
22632;SDS011;11483;55.828;37.488;2023-12-20T05:45:19;6.33;;;2.00;;
22632;SDS011;11483;55.828;37.488;2023-12-20T05:47:45;3.20;;;2.03;;
22632;SDS011;11483;55.828;37.488;2023-12-20T05:50:11;3.83;;;2.40;;
22632;SDS011;11483;55.828;37.488;2023-12-20T05:52:37;5.57;;;2.10;;
22632;SDS011;11483;55.828;37.488;2023-12-20T05:55:03;6.00;;;2.50;;
22632;SDS011;11483;55.828;37.488;2023-12-20T05:57:30;2.93;;;2.13;;
22632;SDS011;11483;55.828;37.488;2023-12-20T05:59:56;7.13;;;2.53;;
22632;SDS011;11483;55.828;37.488;2023-12-20T06:02:21;6.97;;;2.60;;
22632;SDS011;11483;55.828;37.488;2023-12-20T06:04:47;4.60;;;2.23;;
22632;SDS011;11483;55.828;37.488;2023-12-20T06:07:13;11.97;;;2.77;;
22632;SDS011;11483;55.828;37.488;2023-12-20T06:09:40;4.60;;;2.43;;
22632;SDS011;11483;55.828;37.488;2023-12-20T06:12:06;5.30;;;2.57;;
22632;SDS011;11483;55.828;37.488;2023-12-20T06:14:36;5.87;;;2.87;;
22632;SDS011;11483;55.828;37.488;2023-12-20T06:17:02;5.47;;;2.77;;
22632;SDS011;11483;55.828;37.488;2023-12-20T06:19:28;5.47;;;2.53;;
22632;SDS011;11483;55.828;37.488;2023-12-20T06:21:54;10.27;;;2.40;;
22632;SDS011;11483;55.828;37.488;2023-12-20T06:24:20;9.93;;;3.63;;
22632;SDS011;11483;55.828;37.488;2023-12-20T06:26:46;8.27;;;2.93;;
22632;SDS011;11483;55.828;37.488;2023-12-20T06:29:12;5.60;;;2.87;;
22632;SDS011;11483;55.828;37.488;2023-12-20T06:31:38;6.97;;;3.30;;
22632;SDS011;11483;55.828;37.488;2023-12-20T06:34:04;6.83;;;3.20;;
22632;SDS011;11483;55.828;37.488;2023-12-20T06:36:30;6.00;;;3.03;;
22632;SDS011;11483;55.828;37.488;2023-12-20T06:38:56;5.77;;;2.63;;
22632;SDS011;11483;55.828;37.488;2023-12-20T06:41:22;7.17;;;3.13;;
22632;SDS011;11483;55.828;37.488;2023-12-20T06:43:50;6.78;;;3.00;;
22632;SDS011;11483;55.828;37.488;2023-12-20T06:46:18;5.37;;;2.80;;
22632;SDS011;11483;55.828;37.488;2023-12-20T06:48:44;11.73;;;3.15;;
22632;SDS011;11483;55.828;37.488;2023-12-20T06:51:14;4.97;;;2.80;;
22632;SDS011;11483;55.828;37.488;2023-12-20T06:53:41;5.37;;;3.20;;
22632;SDS011;11483;55.828;37.488;2023-12-20T06:56:07;5.25;;;2.75;;
22632;SDS011;11483;55.828;37.488;2023-12-20T06:58:34;12.40;;;2.63;;
22632;SDS011;11483;55.828;37.488;2023-12-20T07:01:01;8.75;;;2.75;;
22632;SDS011;11483;55.828;37.488;2023-12-20T07:03:27;8.43;;;2.40;;
22632;SDS011;11483;55.828;37.488;2023-12-20T07:05:53;3.72;;;2.72;;
22632;SDS011;11483;55.828;37.488;2023-12-20T07:08:19;5.38;;;2.60;;
22632;SDS011;11483;55.828;37.488;2023-12-20T07:10:45;9.10;;;3.53;;
22632;SDS011;11483;55.828;37.488;2023-12-20T07:13:11;4.03;;;2.25;;
22632;SDS011;11483;55.828;37.488;2023-12-20T07:15:38;4.75;;;2.50;;
22632;SDS011;11483;55.828;37.488;2023-12-20T07:18:04;5.88;;;3.00;;
22632;SDS011;11483;55.828;37.488;2023-12-20T07:20:31;3.35;;;2.53;;
22632;SDS011;11483;55.828;37.488;2023-12-20T07:22:57;2.92;;;2.15;;
22632;SDS011;11483;55.828;37.488;2023-12-20T07:25:23;4.00;;;2.22;;
22632;SDS011;11483;55.828;37.488;2023-12-20T07:27:49;6.75;;;2.50;;
22632;SDS011;11483;55.828;37.488;2023-12-20T07:30:15;4.32;;;2.30;;
22632;SDS011;11483;55.828;37.488;2023-12-20T07:32:41;5.20;;;2.05;;
22632;SDS011;11483;55.828;37.488;2023-12-20T07:35:07;10.43;;;2.20;;
22632;SDS011;11483;55.828;37.488;2023-12-20T07:37:33;5.35;;;1.92;;
22632;SDS011;11483;55.828;37.488;2023-12-20T07:39:59;8.05;;;2.22;;
22632;SDS011;11483;55.828;37.488;2023-12-20T07:42:24;4.95;;;2.50;;
22632;SDS011;11483;55.828;37.488;2023-12-20T07:44:51;5.43;;;2.30;;
22632;SDS011;11483;55.828;37.488;2023-12-20T07:47:16;5.25;;;2.03;;
22632;SDS011;11483;55.828;37.488;2023-12-20T07:49:46;4.05;;;2.35;;
22632;SDS011;11483;55.828;37.488;2023-12-20T07:52:17;7.97;;;2.53;;
22632;SDS011;11483;55.828;37.488;2023-12-20T07:54:43;5.22;;;1.92;;
22632;SDS011;11483;55.828;37.488;2023-12-20T07:57:10;7.20;;;2.03;;
22632;SDS011;11483;55.828;37.488;2023-12-20T07:59:36;4.22;;;2.33;;
22632;SDS011;11483;55.828;37.488;2023-12-20T08:02:02;7.00;;;2.17;;
22632;SDS011;11483;55.828;37.488;2023-12-20T08:04:28;3.47;;;1.92;;
22632;SDS011;11483;55.828;37.488;2023-12-20T08:06:54;5.57;;;1.70;;
22632;SDS011;11483;55.828;37.488;2023-12-20T08:09:20;4.13;;;1.77;;
22632;SDS011;11483;55.828;37.488;2023-12-20T08:11:47;5.88;;;1.60;;
22632;SDS011;11483;55.828;37.488;2023-12-20T08:14:13;2.78;;;1.70;;
22632;SDS011;11483;55.828;37.488;2023-12-20T08:16:39;4.03;;;1.92;;
22632;SDS011;11483;55.828;37.488;2023-12-20T08:19:05;3.80;;;1.90;;
22632;SDS011;11483;55.828;37.488;2023-12-20T08:21:31;3.75;;;1.70;;
22632;SDS011;11483;55.828;37.488;2023-12-20T08:23:57;4.45;;;1.85;;
22632;SDS011;11483;55.828;37.488;2023-12-20T08:26:23;2.85;;;1.60;;
22632;SDS011;11483;55.828;37.488;2023-12-20T08:28:49;4.57;;;1.88;;
22632;SDS011;11483;55.828;37.488;2023-12-20T08:31:16;5.97;;;1.85;;
22632;SDS011;11483;55.828;37.488;2023-12-20T08:33:46;18.73;;;6.38;;
22632;SDS011;11483;55.828;37.488;2023-12-20T08:36:13;1.88;;;1.48;;
22632;SDS011;11483;55.828;37.488;2023-12-20T08:38:39;5.10;;;1.60;;
22632;SDS011;11483;55.828;37.488;2023-12-20T08:41:06;4.70;;;1.80;;
22632;SDS011;11483;55.828;37.488;2023-12-20T08:43:33;5.75;;;1.75;;
22632;SDS011;11483;55.828;37.488;2023-12-20T08:46:00;3.38;;;1.80;;
22632;SDS011;11483;55.828;37.488;2023-12-20T08:48:26;2.95;;;1.60;;
22632;SDS011;11483;55.828;37.488;2023-12-20T08:50:53;3.38;;;1.80;;
22632;SDS011;11483;55.828;37.488;2023-12-20T08:53:18;8.60;;;1.60;;
22632;SDS011;11483;55.828;37.488;2023-12-20T08:55:45;2.97;;;1.92;;
22632;SDS011;11483;55.828;37.488;2023-12-20T08:58:11;2.95;;;1.65;;
22632;SDS011;11483;55.828;37.488;2023-12-20T09:00:37;2.95;;;1.73;;
22632;SDS011;11483;55.828;37.488;2023-12-20T09:03:04;1.92;;;1.60;;
22632;SDS011;11483;55.828;37.488;2023-12-20T09:05:29;2.83;;;1.92;;
22632;SDS011;11483;55.828;37.488;2023-12-20T09:07:55;3.53;;;1.80;;
22632;SDS011;11483;55.828;37.488;2023-12-20T09:10:21;3.42;;;2.05;;
22632;SDS011;11483;55.828;37.488;2023-12-20T09:12:51;5.65;;;2.10;;
22632;SDS011;11483;55.828;37.488;2023-12-20T09:15:25;3.95;;;1.98;;
22632;SDS011;11483;55.828;37.488;2023-12-20T09:17:52;5.78;;;2.70;;
22632;SDS011;11483;55.828;37.488;2023-12-20T09:20:18;2.17;;;1.70;;
22632;SDS011;11483;55.828;37.488;2023-12-20T09:22:45;6.30;;;2.13;;
22632;SDS011;11483;55.828;37.488;2023-12-20T09:25:10;2.72;;;1.80;;
22632;SDS011;11483;55.828;37.488;2023-12-20T09:27:38;3.63;;;2.00;;
22632;SDS011;11483;55.828;37.488;2023-12-20T09:30:05;7.68;;;2.30;;
22632;SDS011;11483;55.828;37.488;2023-12-20T09:32:32;3.63;;;1.65;;
22632;SDS011;11483;55.828;37.488;2023-12-20T09:34:58;2.05;;;1.80;;
22632;SDS011;11483;55.828;37.488;2023-12-20T09:37:26;3.25;;;2.17;;
22632;SDS011;11483;55.828;37.488;2023-12-20T09:39:53;2.80;;;2.15;;
22632;SDS011;11483;55.828;37.488;2023-12-20T09:42:29;4.30;;;1.90;;
22632;SDS011;11483;55.828;37.488;2023-12-20T09:45:11;2.92;;;1.77;;
22632;SDS011;11483;55.828;37.488;2023-12-20T09:47:40;2.83;;;1.70;;
22632;SDS011;11483;55.828;37.488;2023-12-20T09:50:09;3.17;;;1.75;;
22632;SDS011;11483;55.828;37.488;2023-12-20T09:52:36;3.67;;;1.90;;
22632;SDS011;11483;55.828;37.488;2023-12-20T09:55:04;2.97;;;1.77;;
22632;SDS011;11483;55.828;37.488;2023-12-20T09:57:32;2.92;;;1.60;;
22632;SDS011;11483;55.828;37.488;2023-12-20T09:59:58;8.98;;;2.00;;
22632;SDS011;11483;55.828;37.488;2023-12-20T10:02:28;2.53;;;1.85;;
22632;SDS011;11483;55.828;37.488;2023-12-20T10:04:57;2.17;;;1.50;;
22632;SDS011;11483;55.828;37.488;2023-12-20T10:07:24;6.22;;;1.73;;
22632;SDS011;11483;55.828;37.488;2023-12-20T10:09:51;3.92;;;2.03;;
22632;SDS011;11483;55.828;37.488;2023-12-20T10:12:21;3.00;;;2.00;;
22632;SDS011;11483;55.828;37.488;2023-12-20T10:14:46;2.20;;;1.67;;
22632;SDS011;11483;55.828;37.488;2023-12-20T10:17:12;2.70;;;1.77;;
22632;SDS011;11483;55.828;37.488;2023-12-20T10:19:38;5.97;;;2.00;;
22632;SDS011;11483;55.828;37.488;2023-12-20T10:22:04;2.88;;;1.73;;
22632;SDS011;11483;55.828;37.488;2023-12-20T10:24:30;7.20;;;2.20;;
22632;SDS011;11483;55.828;37.488;2023-12-20T10:27:03;3.17;;;2.00;;
22632;SDS011;11483;55.828;37.488;2023-12-20T10:29:36;2.67;;;2.20;;
22632;SDS011;11483;55.828;37.488;2023-12-20T10:32:26;3.10;;;2.00;;
22632;SDS011;11483;55.828;37.488;2023-12-20T10:34:55;3.85;;;2.22;;
22632;SDS011;11483;55.828;37.488;2023-12-20T10:37:21;2.60;;;1.98;;
22632;SDS011;11483;55.828;37.488;2023-12-20T10:39:51;4.55;;;1.83;;
22632;SDS011;11483;55.828;37.488;2023-12-20T10:42:22;2.85;;;1.77;;
22632;SDS011;11483;55.828;37.488;2023-12-20T10:44:52;4.63;;;1.98;;
22632;SDS011;11483;55.828;37.488;2023-12-20T10:47:19;2.50;;;1.75;;
22632;SDS011;11483;55.828;37.488;2023-12-20T10:49:46;2.95;;;2.00;;
22632;SDS011;11483;55.828;37.488;2023-12-20T10:52:12;3.60;;;2.10;;
22632;SDS011;11483;55.828;37.488;2023-12-20T10:54:39;2.45;;;1.88;;
22632;SDS011;11483;55.828;37.488;2023-12-20T10:57:06;6.13;;;2.08;;
22632;SDS011;11483;55.828;37.488;2023-12-20T10:59:39;2.38;;;1.80;;
22632;SDS011;11483;55.828;37.488;2023-12-20T11:02:05;2.03;;;1.60;;
22632;SDS011;11483;55.828;37.488;2023-12-20T11:04:46;2.35;;;1.85;;
22632;SDS011;11483;55.828;37.488;2023-12-20T11:10:25;2.83;;;1.70;;
22632;SDS011;11483;55.828;37.488;2023-12-20T11:12:57;1.98;;;1.13;;
22632;SDS011;11483;55.828;37.488;2023-12-20T11:15:35;3.65;;;1.33;;
22632;SDS011;11483;55.828;37.488;2023-12-20T11:18:04;1.50;;;1.20;;
22632;SDS011;11483;55.828;37.488;2023-12-20T11:20:35;3.78;;;1.80;;
22632;SDS011;11483;55.828;37.488;2023-12-20T11:23:05;1.80;;;1.40;;
22632;SDS011;11483;55.828;37.488;2023-12-20T11:28:31;1.35;;;1.20;;
22632;SDS011;11483;55.828;37.488;2023-12-20T11:30:58;1.88;;;1.30;;
22632;SDS011;11483;55.828;37.488;2023-12-20T11:33:26;4.32;;;1.35;;
22632;SDS011;11483;55.828;37.488;2023-12-20T11:35:55;2.30;;;1.40;;
22632;SDS011;11483;55.828;37.488;2023-12-20T11:38:21;3.97;;;1.30;;
22632;SDS011;11483;55.828;37.488;2023-12-20T11:40:51;2.85;;;1.70;;
22632;SDS011;11483;55.828;37.488;2023-12-20T11:46:07;1.75;;;1.23;;
22632;SDS011;11483;55.828;37.488;2023-12-20T11:48:37;2.53;;;1.27;;
22632;SDS011;11483;55.828;37.488;2023-12-20T11:51:11;2.50;;;1.15;;
22632;SDS011;11483;55.828;37.488;2023-12-20T11:53:38;1.75;;;1.17;;
22632;SDS011;11483;55.828;37.488;2023-12-20T11:56:05;3.80;;;1.58;;
22632;SDS011;11483;55.828;37.488;2023-12-20T11:58:32;1.35;;;1.10;;
22632;SDS011;11483;55.828;37.488;2023-12-20T12:01:01;1.85;;;1.30;;
22632;SDS011;11483;55.828;37.488;2023-12-20T12:03:27;3.83;;;1.48;;
22632;SDS011;11483;55.828;37.488;2023-12-20T12:05:53;4.80;;;1.42;;
22632;SDS011;11483;55.828;37.488;2023-12-20T12:08:19;3.97;;;1.33;;
22632;SDS011;11483;55.828;37.488;2023-12-20T12:10:45;4.82;;;1.50;;
22632;SDS011;11483;55.828;37.488;2023-12-20T12:13:11;2.55;;;1.40;;
22632;SDS011;11483;55.828;37.488;2023-12-20T12:15:39;7.88;;;2.72;;
22632;SDS011;11483;55.828;37.488;2023-12-20T12:18:07;2.25;;;1.40;;
22632;SDS011;11483;55.828;37.488;2023-12-20T12:20:33;3.55;;;1.35;;
22632;SDS011;11483;55.828;37.488;2023-12-20T12:23:00;4.15;;;1.33;;
22632;SDS011;11483;55.828;37.488;2023-12-20T12:25:28;1.73;;;1.40;;
22632;SDS011;11483;55.828;37.488;2023-12-20T12:28:00;1.20;;;1.10;;
22632;SDS011;11483;55.828;37.488;2023-12-20T12:30:26;4.07;;;1.27;;
22632;SDS011;11483;55.828;37.488;2023-12-20T12:32:53;2.63;;;1.50;;
22632;SDS011;11483;55.828;37.488;2023-12-20T12:35:21;1.17;;;1.05;;
22632;SDS011;11483;55.828;37.488;2023-12-20T12:37:47;2.80;;;1.23;;
22632;SDS011;11483;55.828;37.488;2023-12-20T12:40:14;1.80;;;1.30;;
22632;SDS011;11483;55.828;37.488;2023-12-20T12:42:41;2.00;;;1.37;;
22632;SDS011;11483;55.828;37.488;2023-12-20T12:45:08;2.13;;;1.50;;
22632;SDS011;11483;55.828;37.488;2023-12-20T12:47:36;3.05;;;1.42;;
22632;SDS011;11483;55.828;37.488;2023-12-20T12:50:03;3.30;;;1.65;;
22632;SDS011;11483;55.828;37.488;2023-12-20T12:52:32;8.23;;;1.97;;
22632;SDS011;11483;55.828;37.488;2023-12-20T12:54:58;3.60;;;1.80;;
22632;SDS011;11483;55.828;37.488;2023-12-20T12:57:24;4.57;;;1.50;;
22632;SDS011;11483;55.828;37.488;2023-12-20T12:59:50;4.13;;;1.80;;
22632;SDS011;11483;55.828;37.488;2023-12-20T13:02:16;4.13;;;2.00;;
22632;SDS011;11483;55.828;37.488;2023-12-20T13:04:42;2.55;;;1.73;;
22632;SDS011;11483;55.828;37.488;2023-12-20T13:07:09;6.95;;;1.83;;
22632;SDS011;11483;55.828;37.488;2023-12-20T13:09:38;4.30;;;1.97;;
22632;SDS011;11483;55.828;37.488;2023-12-20T13:12:05;5.57;;;3.13;;
22632;SDS011;11483;55.828;37.488;2023-12-20T13:14:33;7.97;;;2.20;;
22632;SDS011;11483;55.828;37.488;2023-12-20T13:17:02;2.40;;;1.80;;
22632;SDS011;11483;55.828;37.488;2023-12-20T13:19:28;4.07;;;1.83;;
22632;SDS011;11483;55.828;37.488;2023-12-20T13:21:55;2.40;;;1.70;;
22632;SDS011;11483;55.828;37.488;2023-12-20T13:24:21;2.90;;;1.70;;
22632;SDS011;11483;55.828;37.488;2023-12-20T13:26:47;2.45;;;1.33;;
22632;SDS011;11483;55.828;37.488;2023-12-20T13:29:13;4.63;;;2.10;;
22632;SDS011;11483;55.828;37.488;2023-12-20T13:31:39;3.20;;;1.65;;
22632;SDS011;11483;55.828;37.488;2023-12-20T13:34:06;3.73;;;1.67;;
22632;SDS011;11483;55.828;37.488;2023-12-20T13:36:32;3.75;;;1.45;;
22632;SDS011;11483;55.828;37.488;2023-12-20T13:38:58;1.80;;;1.40;;
22632;SDS011;11483;55.828;37.488;2023-12-20T13:41:24;2.80;;;1.40;;
22632;SDS011;11483;55.828;37.488;2023-12-20T13:43:50;2.50;;;1.50;;
22632;SDS011;11483;55.828;37.488;2023-12-20T13:46:16;3.33;;;1.50;;
22632;SDS011;11483;55.828;37.488;2023-12-20T13:48:42;3.40;;;1.40;;
22632;SDS011;11483;55.828;37.488;2023-12-20T13:51:08;2.30;;;1.30;;
22632;SDS011;11483;55.828;37.488;2023-12-20T13:53:34;4.23;;;1.37;;
22632;SDS011;11483;55.828;37.488;2023-12-20T13:56:00;3.53;;;1.70;;
22632;SDS011;11483;55.828;37.488;2023-12-20T13:58:26;1.70;;;1.50;;
22632;SDS011;11483;55.828;37.488;2023-12-20T14:00:52;2.43;;;1.80;;
22632;SDS011;11483;55.828;37.488;2023-12-20T14:03:17;2.97;;;1.80;;
22632;SDS011;11483;55.828;37.488;2023-12-20T14:05:45;2.60;;;1.60;;
22632;SDS011;11483;55.828;37.488;2023-12-20T14:08:11;1.97;;;1.57;;
22632;SDS011;11483;55.828;37.488;2023-12-20T14:10:37;1.73;;;1.30;;
22632;SDS011;11483;55.828;37.488;2023-12-20T14:13:04;4.70;;;1.60;;
22632;SDS011;11483;55.828;37.488;2023-12-20T14:15:30;3.40;;;1.93;;
22632;SDS011;11483;55.828;37.488;2023-12-20T14:18:03;5.10;;;1.70;;
22632;SDS011;11483;55.828;37.488;2023-12-20T14:20:31;2.83;;;1.83;;
22632;SDS011;11483;55.828;37.488;2023-12-20T14:23:00;3.47;;;2.30;;
22632;SDS011;11483;55.828;37.488;2023-12-20T14:25:26;5.03;;;2.30;;
22632;SDS011;11483;55.828;37.488;2023-12-20T14:27:52;2.43;;;1.93;;
22632;SDS011;11483;55.828;37.488;2023-12-20T14:30:18;6.87;;;2.40;;
22632;SDS011;11483;55.828;37.488;2023-12-20T14:32:44;5.10;;;2.17;;
22632;SDS011;11483;55.828;37.488;2023-12-20T14:35:11;3.43;;;2.20;;
22632;SDS011;11483;55.828;37.488;2023-12-20T14:37:37;5.17;;;1.90;;
22632;SDS011;11483;55.828;37.488;2023-12-20T14:40:06;3.33;;;2.10;;